Terminal Aerodrome Forecast
Issued by NWS

Home | Current Version | Previous Version | Text Only | Print | Product List | Glossary On
Versions: 1 2 3 4 5 6 7 8 9 10 11 12
000
FTUS46 KHNX 292320
TAFMER
TAF
KMER 292320Z 3000/3024 VRB04KT P6SM SCT250
     FM300600 31006KT P6SM BKN120
     FM301500 30011G18KT P6SM SCT060 BKN120
      TEMPO 3015/3019 -RA BKN060
     FM301900 31012G22KT P6SM -SHRA SCT040 BKN060=

USA.gov is the U.S. government's official web portal to all federal, state and local government web resources and services.